createdAt,value
2023-04-26T00:00:30.312Z,87.14
2023-04-26T00:02:32.789Z,86.96
2023-04-26T00:04:35.279Z,86.86
2023-04-26T00:06:37.400Z,86.88
2023-04-26T00:08:39.045Z,86.69
2023-04-26T00:10:40.792Z,87.22
2023-04-26T00:12:42.648Z,86.97
2023-04-26T00:14:44.433Z,86.74
2023-04-26T00:16:46.298Z,86.46
2023-04-26T00:18:49.287Z,86.41
2023-04-26T00:20:51.311Z,86.81
2023-04-26T00:22:53.158Z,86.89
2023-04-26T00:24:54.737Z,86.51
2023-04-26T00:26:56.302Z,86.71
2023-04-26T00:28:57.993Z,86.44
2023-04-26T00:30:59.630Z,86.64
2023-04-26T00:33:01.260Z,86.55
2023-04-26T00:37:08.541Z,87.03
2023-04-26T00:39:10.498Z,86.86
2023-04-26T00:41:12.142Z,86.72
2023-04-26T00:43:13.595Z,86.96
2023-04-26T00:45:15.251Z,87.28
2023-04-26T00:47:16.783Z,87.34
2023-04-26T00:49:21.721Z,87.83
2023-04-26T00:51:23.325Z,87.89
2023-04-26T00:53:25.100Z,87.96
2023-04-26T00:55:27.345Z,88.15
2023-04-26T00:57:28.956Z,87.95
2023-04-26T00:59:30.567Z,88.53
2023-04-26T01:01:32.559Z,88.43
2023-04-26T01:03:34.589Z,88.68
2023-04-26T01:05:36.763Z,88.39
2023-04-26T01:07:41.046Z,88.95
2023-04-26T01:09:44.059Z,88.79
2023-04-26T01:11:46.041Z,88.98
2023-04-26T01:13:48.262Z,89.17
2023-04-26T01:15:49.745Z,89.19
2023-04-26T01:17:52.398Z,89.17
2023-04-26T01:19:54.106Z,89.19
2023-04-26T01:21:55.587Z,89.40
2023-04-26T01:23:57.018Z,89.60
2023-04-26T01:25:58.559Z,90.24
2023-04-26T01:28:00.175Z,90.06
2023-04-26T01:30:02.103Z,89.88
2023-04-26T01:32:03.814Z,90.01
2023-04-26T01:34:05.878Z,89.38
2023-04-26T01:36:10.751Z,89.31
2023-04-26T01:38:14.516Z,89.92
2023-04-26T01:40:16.187Z,90.08
2023-04-26T01:42:17.770Z,90.02
2023-04-26T01:44:19.332Z,89.94
2023-04-26T01:46:20.965Z,90.37
2023-04-26T01:48:22.447Z,90.60
2023-04-26T01:50:23.916Z,90.45
2023-04-26T01:52:25.414Z,90.36
2023-04-26T01:54:26.866Z,90.29
2023-04-26T01:56:28.511Z,90.34
2023-04-26T01:58:30.355Z,90.04
2023-04-26T02:00:33.680Z,90.21
2023-04-26T02:02:35.218Z,90.00
2023-04-26T02:04:37.035Z,89.92
2023-04-26T02:06:38.501Z,89.88
2023-04-26T02:08:40.033Z,89.57
2023-04-26T02:10:41.716Z,89.43
2023-04-26T02:12:43.170Z,89.12
2023-04-26T02:14:44.656Z,89.15
2023-04-26T02:16:46.128Z,88.99
2023-04-26T02:18:49.858Z,88.99
2023-04-26T02:20:51.678Z,88.50
2023-04-26T02:22:53.208Z,88.70
2023-04-26T02:24:54.640Z,88.83
2023-04-26T02:26:56.479Z,88.94
2023-04-26T02:28:57.923Z,89.00
2023-04-26T02:30:59.750Z,88.77
2023-04-26T02:33:02.289Z,89.28
2023-04-26T02:35:05.258Z,89.40
2023-04-26T02:37:07.487Z,89.65
2023-04-26T02:39:08.975Z,89.44
2023-04-26T02:41:10.500Z,89.76
2023-04-26T02:43:12.032Z,89.82
2023-04-26T02:45:13.567Z,89.84
2023-04-26T02:47:16.634Z,90.05
2023-04-26T02:49:18.128Z,90.27
2023-04-26T02:51:19.556Z,90.34
2023-04-26T02:53:21.686Z,90.37
2023-04-26T02:55:23.149Z,90.33
2023-04-26T02:57:24.625Z,90.49
2023-04-26T02:59:26.063Z,90.58
2023-04-26T03:01:27.639Z,90.69
2023-04-26T03:03:29.292Z,90.84
2023-04-26T03:05:30.952Z,91.07
2023-04-26T03:07:33.020Z,91.11
2023-04-26T03:09:34.560Z,91.28
2023-04-26T03:11:36.017Z,91.36
2023-04-26T03:13:37.554Z,91.35
2023-04-26T03:15:39.003Z,91.53
2023-04-26T03:17:40.558Z,91.60
2023-04-26T03:19:42.073Z,91.68
2023-04-26T03:21:43.518Z,91.85
2023-04-26T03:23:44.995Z,91.83
2023-04-26T03:25:46.944Z,91.89
2023-04-26T03:27:48.482Z,91.84
2023-04-26T03:29:49.971Z,91.93
2023-04-26T03:31:51.437Z,91.98
2023-04-26T03:33:52.929Z,92.28
2023-04-26T03:35:54.397Z,92.14
2023-04-26T03:37:58.477Z,92.17
2023-04-26T03:40:00.211Z,91.95
2023-04-26T03:42:01.909Z,92.21
2023-04-26T03:44:03.494Z,92.31
2023-04-26T03:46:05.660Z,92.51
2023-04-26T03:48:07.283Z,92.63
2023-04-26T03:50:09.199Z,92.36
2023-04-26T03:52:11.108Z,92.72
2023-04-26T03:54:12.711Z,92.85
2023-04-26T03:56:14.461Z,92.75
2023-04-26T03:58:15.932Z,92.92
2023-04-26T04:00:17.513Z,92.96
2023-04-26T04:02:19.011Z,92.69
2023-04-26T04:04:20.689Z,92.74
2023-04-26T04:06:22.322Z,92.78
2023-04-26T04:08:23.834Z,92.83
2023-04-26T04:10:25.822Z,92.81
2023-04-26T04:12:27.346Z,92.52
2023-04-26T04:14:28.830Z,92.79
2023-04-26T04:16:30.348Z,92.65
2023-04-26T04:18:31.821Z,92.71
2023-04-26T04:20:33.299Z,92.55
2023-04-26T04:22:34.888Z,92.05
2023-04-26T04:24:37.061Z,91.89
2023-04-26T04:26:39.100Z,91.85
2023-04-26T04:28:43.099Z,91.86
2023-04-26T04:30:46.301Z,92.19
2023-04-26T04:32:47.802Z,92.41
2023-04-26T04:34:50.263Z,92.40
2023-04-26T04:36:51.778Z,92.78
2023-04-26T04:38:53.682Z,92.62
2023-04-26T04:40:55.381Z,92.55
2023-04-26T04:42:56.826Z,92.31
2023-04-26T04:44:59.605Z,92.50
2023-04-26T04:47:01.133Z,92.23
2023-04-26T04:49:03.171Z,91.72
2023-04-26T04:51:05.076Z,91.44
2023-04-26T04:53:06.562Z,91.02
2023-04-26T04:55:08.439Z,91.06
2023-04-26T04:57:10.394Z,91.15
2023-04-26T04:59:12.623Z,90.75
2023-04-26T05:01:15.096Z,90.26
2023-04-26T05:03:16.887Z,90.69
2023-04-26T05:05:18.658Z,90.56
2023-04-26T05:07:20.174Z,90.00
2023-04-26T05:09:21.698Z,90.02
2023-04-26T05:11:23.264Z,89.53
2023-04-26T05:13:24.791Z,89.61
2023-04-26T05:15:26.470Z,89.20
2023-04-26T05:17:28.014Z,88.78
2023-04-26T05:19:29.545Z,87.97
2023-04-26T05:21:32.256Z,87.91
2023-04-26T05:23:34.464Z,87.12
2023-04-26T05:25:41.226Z,86.45
2023-04-26T05:27:42.680Z,86.76
2023-04-26T05:29:44.196Z,86.43
2023-04-26T05:31:45.833Z,85.11
2023-04-26T05:33:47.740Z,85.80
2023-04-26T05:35:49.240Z,85.03
2023-04-26T05:37:50.722Z,85.37
2023-04-26T05:39:52.233Z,85.40
2023-04-26T05:41:53.722Z,84.41
2023-04-26T05:43:55.560Z,83.55
2023-04-26T05:45:57.289Z,84.29
2023-04-26T05:47:58.845Z,83.47
2023-04-26T05:50:00.499Z,83.41
2023-04-26T05:52:03.625Z,83.86
2023-04-26T05:54:05.261Z,82.98
2023-04-26T05:56:07.232Z,83.33
2023-04-26T05:58:09.402Z,84.03
2023-04-26T06:00:12.268Z,83.48
2023-04-26T06:02:13.905Z,83.72
2023-04-26T06:04:15.705Z,83.69
2023-04-26T06:06:18.483Z,82.98
2023-04-26T06:08:20.269Z,82.95
2023-04-26T06:10:21.907Z,83.29
2023-04-26T06:12:23.476Z,83.08
2023-04-26T06:16:30.735Z,82.96
2023-04-26T06:18:32.225Z,82.78
2023-04-26T06:20:33.703Z,82.71
2023-04-26T06:22:35.160Z,83.22
2023-04-26T06:24:36.685Z,82.40
2023-04-26T06:26:38.133Z,82.34
2023-04-26T06:28:41.088Z,83.65
2023-04-26T06:30:43.751Z,83.66
2023-04-26T06:32:45.987Z,83.29
2023-04-26T06:34:47.537Z,82.51
2023-04-26T06:36:49.102Z,82.76
2023-04-26T06:38:50.623Z,82.14
2023-04-26T06:40:52.112Z,81.37
2023-04-26T06:42:55.064Z,81.92
2023-04-26T06:44:56.614Z,81.75
2023-04-26T06:46:58.244Z,82.00
2023-04-26T06:49:01.603Z,82.05
2023-04-26T06:51:06.772Z,82.03
2023-04-26T06:53:08.487Z,81.10
2023-04-26T06:55:10.437Z,80.27
2023-04-26T06:57:11.990Z,80.33
2023-04-26T06:59:13.446Z,81.47
2023-04-26T07:01:14.956Z,81.24
2023-04-26T07:03:16.911Z,81.17
2023-04-26T07:05:18.664Z,79.71
2023-04-26T07:07:20.620Z,80.58
2023-04-26T07:09:22.911Z,79.53
2023-04-26T07:11:25.971Z,79.14
2023-04-26T07:13:28.078Z,79.53
2023-04-26T07:15:29.824Z,79.40
2023-04-26T07:17:31.344Z,79.20
2023-04-26T07:19:32.900Z,77.96
2023-04-26T07:21:34.562Z,77.10
2023-04-26T07:23:36.624Z,75.72
2023-04-26T07:25:38.111Z,75.61
2023-04-26T07:27:39.603Z,76.00
2023-04-26T07:29:41.133Z,76.82
2023-04-26T07:31:43.012Z,76.32
2023-04-26T07:33:44.624Z,74.78
2023-04-26T07:35:53.879Z,74.16
2023-04-26T07:37:55.354Z,73.39
2023-04-26T07:39:56.783Z,72.49
2023-04-26T07:41:58.278Z,72.36
2023-04-26T07:44:00.052Z,72.84
2023-04-26T07:46:02.478Z,73.28
2023-04-26T07:48:04.278Z,72.67
2023-04-26T07:50:06.472Z,71.37
2023-04-26T07:52:10.980Z,70.45
2023-04-26T07:54:12.480Z,69.01
2023-04-26T07:56:14.003Z,69.14
2023-04-26T07:58:15.598Z,69.62
2023-04-26T08:00:18.902Z,69.32
2023-04-26T08:02:23.121Z,67.31
2023-04-26T08:04:36.683Z,67.20
2023-04-26T08:06:39.261Z,67.39
2023-04-26T08:08:44.868Z,67.25
2023-04-26T08:10:46.500Z,66.74
2023-04-26T08:12:47.977Z,66.85
2023-04-26T08:14:49.520Z,66.84
2023-04-26T08:16:51.680Z,67.44
2023-04-26T08:18:53.252Z,68.60
2023-04-26T08:20:55.353Z,67.52
2023-04-26T08:22:57.176Z,67.16
2023-04-26T08:24:58.672Z,68.05
2023-04-26T08:27:00.169Z,65.14
2023-04-26T08:29:02.111Z,63.35
2023-04-26T08:31:04.392Z,63.31
2023-04-26T08:33:06.919Z,63.30
2023-04-26T08:35:09.935Z,63.96
2023-04-26T08:37:11.965Z,65.49
2023-04-26T08:39:13.601Z,62.61
2023-04-26T08:41:21.532Z,62.95
2023-04-26T08:43:23.222Z,62.61
2023-04-26T08:45:25.057Z,61.33
2023-04-26T08:47:52.772Z,60.99
2023-04-26T08:49:59.761Z,59.82
2023-04-26T08:52:04.533Z,60.38
2023-04-26T08:54:06.375Z,62.30
2023-04-26T08:56:10.751Z,62.25
2023-04-26T08:58:12.564Z,60.51
2023-04-26T09:00:15.993Z,61.01
2023-04-26T09:02:19.958Z,60.78
2023-04-26T09:04:21.708Z,61.75
2023-04-26T09:06:24.343Z,61.23
2023-04-26T09:08:27.551Z,62.92
2023-04-26T09:10:30.636Z,61.31
2023-04-26T09:12:32.412Z,58.74
2023-04-26T09:14:34.726Z,59.67
2023-04-26T09:16:39.032Z,60.29
2023-04-26T09:18:54.979Z,59.58
2023-04-26T09:21:08.059Z,57.81
2023-04-26T09:23:10.452Z,59.99
2023-04-26T09:25:13.620Z,61.41
2023-04-26T09:27:16.449Z,61.94
2023-04-26T09:29:19.131Z,61.65
2023-04-26T09:31:39.003Z,62.59
2023-04-26T09:33:58.455Z,63.83
2023-04-26T09:36:14.047Z,67.29
2023-04-26T09:38:19.251Z,66.24
2023-04-26T09:40:21.975Z,68.33
2023-04-26T09:42:23.512Z,67.25
2023-04-26T09:44:25.563Z,65.74
2023-04-26T09:46:27.137Z,66.96
2023-04-26T09:48:34.730Z,69.03
2023-04-26T09:50:36.312Z,68.24
2023-04-26T09:52:44.455Z,68.74
2023-04-26T09:54:53.910Z,68.83
2023-04-26T09:57:02.699Z,69.14
2023-04-26T09:59:05.730Z,70.32
2023-04-26T10:01:08.754Z,70.10
2023-04-26T10:03:12.167Z,70.26
2023-04-26T10:05:14.039Z,70.84
2023-04-26T10:07:17.898Z,71.85
2023-04-26T10:09:19.495Z,71.57
2023-04-26T10:11:22.533Z,71.50
2023-04-26T10:13:24.102Z,72.07
2023-04-26T10:15:26.522Z,70.03
2023-04-26T10:17:29.246Z,70.42
2023-04-26T10:19:32.905Z,69.50
2023-04-26T10:21:39.491Z,69.18
2023-04-26T10:23:41.550Z,68.40
2023-04-26T10:25:43.289Z,67.09
2023-04-26T10:27:45.065Z,66.52
2023-04-26T10:29:55.169Z,64.88
2023-04-26T10:32:02.990Z,65.33
2023-04-26T10:34:21.427Z,66.78
2023-04-26T10:36:22.965Z,66.17
2023-04-26T10:38:24.485Z,64.91
2023-04-26T10:40:32.103Z,63.75
2023-04-26T10:42:33.935Z,63.63
2023-04-26T10:44:42.709Z,64.79
2023-04-26T10:46:50.964Z,67.48
2023-04-26T10:48:52.848Z,67.92
2023-04-26T10:51:11.993Z,66.12
2023-04-26T10:53:13.567Z,67.00
2023-04-26T10:55:44.346Z,70.32
2023-04-26T10:57:52.651Z,71.07
2023-04-26T11:00:10.756Z,71.04
2023-04-26T11:02:12.962Z,70.39
2023-04-26T11:04:14.693Z,68.14
2023-04-26T11:06:16.258Z,67.95
2023-04-26T11:08:25.049Z,67.79
2023-04-26T11:10:26.474Z,67.82
2023-04-26T11:12:27.957Z,68.19
2023-04-26T11:14:30.338Z,67.52
2023-04-26T11:16:32.308Z,66.41
2023-04-26T11:18:35.062Z,64.73
2023-04-26T11:20:36.606Z,64.46
2023-04-26T11:22:41.899Z,62.56
2023-04-26T11:24:43.468Z,63.15
2023-04-26T11:26:51.621Z,63.69
2023-04-26T11:28:53.336Z,61.65
2023-04-26T11:30:55.921Z,66.20
2023-04-26T11:32:58.909Z,66.65
2023-04-26T11:35:00.948Z,66.06
2023-04-26T11:37:04.757Z,65.16
2023-04-26T11:39:07.112Z,59.20
2023-04-26T11:41:08.615Z,59.93
2023-04-26T11:43:11.724Z,58.29
2023-04-26T11:45:16.476Z,61.63
2023-04-26T11:47:19.828Z,60.35
2023-04-26T11:49:21.665Z,51.96
2023-04-26T11:51:24.074Z,52.21
2023-04-26T11:53:26.020Z,54.23
2023-04-26T11:55:28.765Z,52.73
2023-04-26T11:57:34.455Z,52.32
2023-04-26T11:59:35.914Z,52.84
2023-04-26T12:01:37.463Z,55.51
2023-04-26T12:03:39.749Z,57.68
2023-04-26T12:05:41.637Z,60.27
2023-04-26T12:07:43.120Z,63.34
2023-04-26T12:09:44.657Z,66.64
2023-04-26T12:11:56.550Z,66.03
2023-04-26T12:13:59.566Z,67.64
2023-04-26T12:18:12.286Z,68.29
2023-04-26T12:20:14.466Z,66.24
2023-04-26T12:22:21.864Z,67.28
2023-04-26T12:24:30.356Z,66.97
2023-04-26T12:26:44.909Z,68.98
2023-04-26T12:28:46.827Z,70.70
2023-04-26T12:30:48.698Z,68.90
2023-04-26T12:32:50.275Z,64.99
2023-04-26T12:34:51.827Z,64.64
2023-04-26T12:36:53.494Z,65.08
2023-04-26T12:38:56.336Z,65.37
2023-04-26T12:40:58.069Z,64.95
2023-04-26T12:42:59.669Z,64.97
2023-04-26T12:45:01.261Z,62.61
2023-04-26T12:47:02.811Z,63.68
2023-04-26T12:49:04.619Z,62.14
2023-04-26T12:51:06.983Z,61.57
2023-04-26T12:53:08.491Z,58.50
2023-04-26T12:55:14.929Z,58.74
2023-04-26T12:57:16.448Z,58.88
2023-04-26T12:59:17.926Z,59.08
2023-04-26T13:01:19.503Z,60.02
2023-04-26T13:03:21.274Z,58.26
2023-04-26T13:05:24.859Z,60.64
2023-04-26T13:07:26.770Z,60.72
2023-04-26T13:09:28.416Z,61.56
2023-04-26T13:11:29.934Z,62.58
2023-04-26T13:13:42.383Z,63.63
2023-04-26T13:15:45.815Z,64.54
2023-04-26T13:17:47.459Z,65.21
2023-04-26T13:19:49.110Z,66.77
2023-04-26T13:21:52.470Z,66.13
2023-04-26T13:23:53.972Z,67.00
2023-04-26T13:25:55.471Z,66.98
2023-04-26T13:27:57.047Z,67.58
2023-04-26T13:29:58.905Z,65.90
2023-04-26T13:32:01.350Z,64.89
2023-04-26T13:34:03.637Z,64.10
2023-04-26T13:36:05.455Z,62.34
2023-04-26T13:38:07.096Z,66.27
2023-04-26T13:40:11.257Z,62.66
2023-04-26T13:42:16.804Z,62.73
2023-04-26T13:44:19.907Z,65.36
2023-04-26T13:46:22.414Z,62.11
2023-04-26T13:48:24.029Z,62.67
2023-04-26T13:50:25.899Z,60.49
2023-04-26T13:52:28.023Z,62.24
2023-04-26T13:54:29.653Z,63.77
2023-04-26T13:56:32.110Z,62.35
2023-04-26T13:58:33.604Z,58.00
2023-04-26T14:00:35.169Z,57.47
2023-04-26T14:02:36.915Z,58.30
2023-04-26T14:04:39.946Z,60.83
2023-04-26T14:06:41.819Z,61.50
2023-04-26T14:08:43.620Z,60.33
2023-04-26T14:10:45.131Z,58.31
2023-04-26T14:12:46.686Z,59.56
2023-04-26T14:14:48.302Z,60.33
2023-04-26T14:16:49.820Z,60.63
2023-04-26T14:18:52.043Z,59.81
2023-04-26T14:20:53.566Z,61.03
2023-04-26T14:22:55.042Z,61.63
2023-04-26T14:24:56.660Z,59.07
2023-04-26T14:27:01.519Z,62.86
2023-04-26T14:29:04.475Z,59.34
2023-04-26T14:31:06.005Z,58.30
2023-04-26T14:33:07.502Z,58.25
2023-04-26T14:35:09.187Z,58.44
2023-04-26T14:37:10.782Z,58.53
2023-04-26T14:39:12.285Z,58.60
2023-04-26T14:41:18.534Z,58.44
2023-04-26T14:43:20.030Z,58.66
2023-04-26T14:45:27.772Z,58.90
2023-04-26T14:47:34.981Z,58.53
2023-04-26T14:49:36.686Z,59.77
2023-04-26T14:51:38.160Z,60.21
2023-04-26T14:53:39.912Z,60.66
2023-04-26T14:55:41.420Z,61.25
2023-04-26T14:57:42.927Z,60.50
2023-04-26T14:59:44.481Z,59.48
2023-04-26T15:01:46.109Z,60.40
2023-04-26T15:03:47.762Z,60.57
2023-04-26T15:05:49.419Z,59.89
2023-04-26T15:07:51.932Z,60.02
2023-04-26T15:09:53.418Z,61.57
2023-04-26T15:11:54.870Z,64.06
2023-04-26T15:13:56.393Z,64.62
2023-04-26T15:15:57.910Z,68.70
2023-04-26T15:17:59.579Z,67.85
2023-04-26T15:20:01.494Z,67.39
2023-04-26T15:22:02.990Z,67.37
2023-04-26T15:24:04.963Z,68.78
2023-04-26T15:26:06.473Z,72.03
2023-04-26T15:28:07.996Z,71.81
2023-04-26T15:30:09.818Z,69.92
2023-04-26T15:32:12.207Z,69.47
2023-04-26T15:34:13.657Z,67.97
2023-04-26T15:36:16.427Z,68.15
2023-04-26T15:38:17.889Z,69.52
2023-04-26T15:40:20.872Z,70.48
2023-04-26T15:42:22.339Z,69.61
2023-04-26T15:44:23.784Z,68.05
2023-04-26T15:46:25.463Z,68.68
2023-04-26T15:48:27.025Z,68.56
2023-04-26T15:50:28.480Z,68.40
2023-04-26T15:52:30.390Z,68.59
2023-04-26T15:54:31.871Z,66.73
2023-04-26T15:56:33.360Z,65.25
2023-04-26T15:58:39.334Z,65.68
2023-04-26T16:00:42.594Z,65.81
2023-04-26T16:02:45.069Z,66.09
2023-04-26T16:04:47.163Z,66.81
2023-04-26T16:06:48.773Z,67.13
2023-04-26T16:08:50.464Z,67.42
2023-04-26T16:10:52.101Z,68.02
2023-04-26T16:12:53.588Z,68.81
2023-04-26T16:14:55.059Z,67.95
2023-04-26T16:16:58.612Z,68.74
2023-04-26T16:19:00.144Z,68.99
2023-04-26T16:21:09.637Z,69.11
2023-04-26T16:23:11.488Z,68.78
2023-04-26T16:25:13.091Z,69.42
2023-04-26T16:27:14.690Z,68.98
2023-04-26T16:29:16.398Z,69.21
2023-04-26T16:31:18.755Z,69.88
2023-04-26T16:33:22.869Z,69.58
2023-04-26T16:35:24.871Z,69.34
2023-04-26T16:37:26.473Z,69.06
2023-04-26T16:39:28.623Z,69.12
2023-04-26T16:41:30.101Z,69.78
2023-04-26T16:43:32.617Z,69.76
2023-04-26T16:45:34.070Z,69.42
2023-04-26T16:47:36.386Z,69.05
2023-04-26T16:49:37.953Z,68.94
2023-04-26T16:51:39.433Z,69.02
2023-04-26T16:53:41.067Z,69.04
2023-04-26T16:55:42.603Z,69.30
2023-04-26T16:57:44.126Z,68.53
2023-04-26T16:59:45.679Z,68.65
2023-04-26T17:01:50.599Z,67.98
2023-04-26T17:03:52.379Z,67.28
2023-04-26T17:05:54.006Z,67.29
2023-04-26T17:07:55.951Z,67.67
2023-04-26T17:09:57.391Z,67.86
2023-04-26T17:11:59.017Z,66.95
2023-04-26T17:14:00.591Z,67.33
2023-04-26T17:16:02.146Z,66.98
2023-04-26T17:18:04.613Z,66.94
2023-04-26T17:20:09.323Z,67.29
2023-04-26T17:22:11.859Z,68.49
2023-04-26T17:24:13.561Z,68.66
2023-04-26T17:26:15.146Z,69.66
2023-04-26T17:28:17.033Z,69.84
2023-04-26T17:30:20.448Z,70.04
2023-04-26T17:32:22.076Z,70.40
2023-04-26T17:34:23.690Z,70.59
2023-04-26T17:36:25.278Z,70.64
2023-04-26T17:38:26.758Z,70.90
2023-04-26T17:40:28.227Z,71.71
2023-04-26T17:42:29.805Z,71.20
2023-04-26T17:44:31.265Z,71.87
2023-04-26T17:46:32.729Z,71.58
2023-04-26T17:48:34.208Z,71.82
2023-04-26T17:50:35.719Z,72.22
2023-04-26T17:52:37.801Z,71.71
2023-04-26T17:54:39.243Z,72.08
2023-04-26T17:56:40.900Z,72.49
2023-04-26T17:58:42.425Z,71.68
2023-04-26T18:00:43.860Z,71.69
2023-04-26T18:02:45.435Z,71.66
2023-04-26T18:04:47.571Z,71.44
2023-04-26T18:06:49.358Z,71.59
2023-04-26T18:08:50.968Z,71.91
2023-04-26T18:10:53.977Z,71.08
2023-04-26T18:12:55.530Z,71.30
2023-04-26T18:14:56.974Z,71.60
2023-04-26T18:16:58.509Z,71.94
2023-04-26T18:19:00.058Z,71.57
2023-04-26T18:21:01.522Z,71.65
2023-04-26T18:23:03.456Z,71.48
2023-04-26T18:25:05.537Z,72.09
2023-04-26T18:27:07.257Z,72.26
2023-04-26T18:29:08.705Z,72.49
2023-04-26T18:31:10.216Z,72.74
2023-04-26T18:33:11.900Z,72.58
2023-04-26T18:35:13.488Z,72.76
2023-04-26T18:37:15.155Z,72.25
2023-04-26T18:39:16.736Z,72.30
2023-04-26T18:41:18.264Z,72.19
2023-04-26T18:43:19.971Z,71.80
2023-04-26T18:45:21.749Z,71.25
2023-04-26T18:47:23.262Z,70.96
2023-04-26T18:49:26.868Z,70.70
2023-04-26T18:51:28.543Z,70.67
2023-04-26T18:53:30.043Z,71.19
2023-04-26T18:55:31.550Z,71.45
2023-04-26T18:57:33.123Z,71.25
2023-04-26T18:59:34.642Z,71.04
2023-04-26T19:01:36.258Z,71.40
2023-04-26T19:03:38.109Z,71.64
2023-04-26T19:05:43.044Z,71.47
2023-04-26T19:07:45.602Z,71.66
2023-04-26T19:09:54.306Z,71.50
2023-04-26T19:11:56.271Z,71.61
2023-04-26T19:13:57.749Z,71.31
2023-04-26T19:15:59.354Z,71.07
2023-04-26T19:18:01.031Z,71.35
2023-04-26T19:20:03.017Z,71.14
2023-04-26T19:22:04.587Z,71.12
2023-04-26T19:24:06.545Z,70.70
2023-04-26T19:26:14.517Z,70.98
2023-04-26T19:28:16.127Z,71.37
2023-04-26T19:30:17.938Z,71.04
2023-04-26T19:32:20.002Z,71.54
2023-04-26T19:34:22.297Z,71.32
2023-04-26T19:36:24.956Z,71.25
2023-04-26T19:38:26.592Z,70.75
2023-04-26T19:40:28.155Z,70.76
2023-04-26T19:42:29.712Z,71.06
2023-04-26T19:44:31.368Z,71.28
2023-04-26T19:46:32.915Z,71.11
2023-04-26T19:48:34.507Z,70.98
2023-04-26T19:50:43.776Z,71.22
2023-04-26T19:52:45.681Z,71.12
2023-04-26T19:54:47.182Z,71.19
2023-04-26T19:56:48.784Z,71.29
2023-04-26T19:58:50.501Z,70.89
2023-04-26T20:00:52.007Z,71.67
2023-04-26T20:02:53.670Z,71.52
2023-04-26T20:04:55.180Z,72.01
2023-04-26T20:06:57.266Z,71.86
2023-04-26T20:08:59.385Z,72.05
2023-04-26T20:11:05.241Z,72.49
2023-04-26T20:13:07.192Z,72.18
2023-04-26T20:15:09.407Z,72.11
2023-04-26T20:17:10.959Z,72.45
2023-04-26T20:19:12.944Z,72.20
2023-04-26T20:21:14.469Z,72.51
2023-04-26T20:23:16.365Z,72.97
2023-04-26T20:25:20.027Z,72.33
2023-04-26T20:27:21.613Z,72.51
2023-04-26T20:29:23.910Z,73.27
2023-04-26T20:31:25.428Z,73.30
2023-04-26T20:33:26.986Z,73.46
2023-04-26T20:35:28.605Z,73.35
2023-04-26T20:37:30.095Z,72.91
2023-04-26T20:39:33.755Z,73.13
2023-04-26T20:41:36.152Z,73.28
2023-04-26T20:43:37.598Z,73.61
2023-04-26T20:45:41.297Z,73.17
2023-04-26T20:47:42.921Z,73.56
2023-04-26T20:49:44.376Z,73.82
2023-04-26T20:51:45.890Z,73.49
2023-04-26T20:53:47.324Z,74.20
2023-04-26T20:55:52.299Z,74.12
2023-04-26T20:57:53.722Z,74.55
2023-04-26T20:59:55.324Z,74.78
2023-04-26T21:01:57.008Z,74.91
2023-04-26T21:03:58.886Z,75.51
2023-04-26T21:06:00.543Z,75.12
2023-04-26T21:08:02.015Z,76.18
2023-04-26T21:10:04.358Z,75.55
2023-04-26T21:12:06.630Z,75.68
2023-04-26T21:14:09.107Z,76.35
2023-04-26T21:16:10.804Z,76.12
2023-04-26T21:18:12.369Z,76.42
2023-04-26T21:20:13.970Z,76.82
2023-04-26T21:22:15.834Z,76.83
2023-04-26T21:24:17.533Z,77.35
2023-04-26T21:26:18.989Z,77.83
2023-04-26T21:28:20.441Z,77.81
2023-04-26T21:30:22.148Z,78.04
2023-04-26T21:32:23.655Z,77.31
2023-04-26T21:34:25.151Z,77.83
2023-04-26T21:36:26.782Z,78.28
2023-04-26T21:38:28.280Z,77.60
2023-04-26T21:40:29.767Z,77.91
2023-04-26T21:42:31.587Z,77.96
2023-04-26T21:44:33.149Z,78.29
2023-04-26T21:46:34.728Z,78.47
2023-04-26T21:48:36.399Z,77.71
2023-04-26T21:50:38.291Z,77.72
2023-04-26T21:52:39.868Z,78.46
2023-04-26T21:54:41.356Z,78.30
2023-04-26T21:56:42.800Z,77.98
2023-04-26T21:58:44.320Z,78.48
2023-04-26T22:00:46.671Z,78.70
2023-04-26T22:02:48.393Z,77.94
2023-04-26T22:04:49.919Z,78.66
2023-04-26T22:06:51.519Z,79.04
2023-04-26T22:08:52.970Z,79.21
2023-04-26T22:10:54.512Z,79.27
2023-04-26T22:12:56.266Z,78.85
2023-04-26T22:14:57.934Z,78.56
2023-04-26T22:16:59.431Z,78.28
2023-04-26T22:19:00.922Z,77.71
2023-04-26T22:21:02.400Z,78.79
2023-04-26T22:23:03.868Z,78.44
2023-04-26T22:25:05.947Z,78.82
2023-04-26T22:27:07.665Z,79.31
2023-04-26T22:29:09.395Z,80.08
2023-04-26T22:31:11.041Z,79.77
2023-04-26T22:33:12.623Z,80.75
2023-04-26T22:35:14.063Z,80.11
2023-04-26T22:37:21.401Z,80.54
2023-04-26T22:39:23.219Z,80.35
2023-04-26T22:41:24.727Z,80.85
2023-04-26T22:43:26.378Z,80.24
2023-04-26T22:45:28.011Z,80.22
2023-04-26T22:47:29.561Z,80.45
2023-04-26T22:49:31.176Z,79.62
2023-04-26T22:51:32.937Z,80.06
2023-04-26T22:53:34.431Z,80.13
2023-04-26T22:55:35.964Z,79.75
2023-04-26T22:57:37.653Z,78.88
2023-04-26T22:59:39.181Z,78.89
2023-04-26T23:01:40.970Z,78.94
2023-04-26T23:03:42.681Z,78.12
2023-04-26T23:05:44.294Z,78.33
2023-04-26T23:07:45.956Z,78.52
2023-04-26T23:09:47.560Z,78.94
2023-04-26T23:11:49.047Z,79.90
2023-04-26T23:13:52.666Z,80.22
2023-04-26T23:15:54.145Z,79.88
2023-04-26T23:17:55.699Z,81.11
2023-04-26T23:19:58.487Z,81.31
2023-04-26T23:22:00.182Z,80.36
2023-04-26T23:24:01.731Z,80.03
2023-04-26T23:26:08.362Z,79.20
2023-04-26T23:28:10.204Z,78.27
2023-04-26T23:30:13.875Z,77.65
2023-04-26T23:32:15.512Z,77.00
2023-04-26T23:34:17.029Z,77.92
2023-04-26T23:36:18.533Z,79.58
2023-04-26T23:38:19.990Z,80.82
2023-04-26T23:40:21.441Z,81.27
2023-04-26T23:42:22.957Z,80.54
2023-04-26T23:44:24.517Z,80.37
2023-04-26T23:46:26.054Z,80.46
2023-04-26T23:48:27.642Z,80.07
2023-04-26T23:50:29.125Z,78.97
2023-04-26T23:52:30.692Z,78.57
2023-04-26T23:54:32.221Z,77.82
2023-04-26T23:56:33.684Z,77.69
2023-04-26T23:58:35.123Z,76.81
